createdAt,value
2018-10-19T00:00:33.223Z,6.37
2018-10-19T00:01:33.212Z,6.52
2018-10-19T00:02:33.204Z,6.49
2018-10-19T00:03:33.206Z,6.55
2018-10-19T00:04:33.178Z,6.54
2018-10-19T00:05:33.166Z,6.48
2018-10-19T00:06:33.161Z,6.48
2018-10-19T00:07:33.153Z,6.58
2018-10-19T00:08:33.133Z,6.54
2018-10-19T00:09:33.136Z,6.48
2018-10-19T00:10:33.113Z,6.51
2018-10-19T00:11:33.100Z,6.51
2018-10-19T00:12:33.112Z,6.51
2018-10-19T00:13:33.078Z,6.55
2018-10-19T00:14:33.068Z,6.49
2018-10-19T00:15:33.066Z,6.58
2018-10-19T00:16:33.044Z,6.49
2018-10-19T00:17:33.033Z,6.48
2018-10-19T00:18:33.027Z,6.43
2018-10-19T00:19:33.013Z,6.49
2018-10-19T00:20:33.002Z,6.51
2018-10-19T00:21:33.002Z,6.41
2018-10-19T00:22:40.011Z,6.43
2018-10-19T00:23:32.970Z,6.46
2018-10-19T00:24:32.966Z,6.38
2018-10-19T00:25:32.945Z,6.41
2018-10-19T00:26:32.932Z,6.40
2018-10-19T00:27:32.933Z,6.41
2018-10-19T00:28:32.924Z,6.37
2018-10-19T00:29:32.898Z,6.33
2018-10-19T00:30:32.888Z,6.30
2018-10-19T00:31:32.878Z,6.30
2018-10-19T00:32:32.877Z,6.19
2018-10-19T00:33:32.872Z,6.27
2018-10-19T00:34:32.862Z,6.22
2018-10-19T00:35:32.840Z,6.21
2018-10-19T00:36:32.841Z,6.18
2018-10-19T00:37:32.812Z,6.08
2018-10-19T00:38:32.799Z,6.14
2018-10-19T00:39:32.800Z,6.11
2018-10-19T00:40:32.778Z,6.08
2018-10-19T00:41:32.778Z,6.17
2018-10-19T00:42:32.755Z,6.12
2018-10-19T00:43:32.781Z,6.08
2018-10-19T00:44:40.136Z,6.17
2018-10-19T00:45:32.725Z,6.08
2018-10-19T00:46:32.715Z,6.22
2018-10-19T00:47:32.702Z,6.12
2018-10-19T00:48:32.700Z,6.12
2018-10-19T00:49:32.681Z,6.06
2018-10-19T00:50:32.681Z,5.94
2018-10-19T00:51:32.667Z,5.94
2018-10-19T00:52:32.657Z,5.85
2018-10-19T00:53:32.652Z,5.81
2018-10-19T00:54:32.627Z,5.79
2018-10-19T00:55:32.621Z,5.82
2018-10-19T00:56:32.616Z,5.74
2018-10-19T00:57:32.593Z,5.82
2018-10-19T00:58:32.578Z,5.85
2018-10-19T00:59:32.580Z,5.86
2018-10-19T01:00:32.563Z,5.82
2018-10-19T01:01:32.560Z,5.81
2018-10-19T01:02:32.539Z,5.81
2018-10-19T01:03:32.568Z,5.86
2018-10-19T01:04:32.520Z,5.85
2018-10-19T01:05:32.539Z,5.91
2018-10-19T01:06:32.487Z,5.93
2018-10-19T01:07:32.490Z,5.91
2018-10-19T01:08:32.469Z,5.91
2018-10-19T01:09:32.461Z,5.86
2018-10-19T01:10:32.452Z,5.86
2018-10-19T01:11:32.437Z,5.85
2018-10-19T01:12:32.430Z,5.90
2018-10-19T01:13:32.409Z,5.82
2018-10-19T01:14:32.408Z,5.83
2018-10-19T01:15:32.399Z,5.86
2018-10-19T01:16:32.400Z,5.85
2018-10-19T01:17:32.368Z,5.82
2018-10-19T01:18:32.362Z,5.72
2018-10-19T01:19:32.346Z,5.90
2018-10-19T01:20:32.341Z,5.81
2018-10-19T01:21:32.333Z,5.85
2018-10-19T01:22:32.321Z,5.83
2018-10-19T01:23:32.306Z,5.78
2018-10-19T01:24:32.285Z,5.86
2018-10-19T01:25:32.279Z,5.85
2018-10-19T01:26:39.308Z,5.83
2018-10-19T01:27:32.288Z,5.75
2018-10-19T01:28:32.249Z,5.79
2018-10-19T01:29:32.235Z,5.83
2018-10-19T01:30:32.242Z,5.83
2018-10-19T01:31:32.225Z,5.78
2018-10-19T01:32:32.196Z,5.90
2018-10-19T01:33:32.190Z,5.86
2018-10-19T01:34:32.182Z,5.85
2018-10-19T01:35:32.163Z,5.83
2018-10-19T01:36:32.152Z,5.83
2018-10-19T01:37:32.143Z,5.79
2018-10-19T01:38:32.134Z,5.85
2018-10-19T01:39:32.124Z,5.79
2018-10-19T01:40:32.125Z,5.85
2018-10-19T01:41:32.097Z,5.74
2018-10-19T01:42:32.084Z,5.74
2018-10-19T01:43:32.087Z,5.75
2018-10-19T01:44:32.068Z,5.67
2018-10-19T01:45:32.051Z,5.72
2018-10-19T01:46:32.051Z,5.72
2018-10-19T01:47:32.046Z,5.74
2018-10-19T01:48:32.018Z,5.61
2018-10-19T01:49:32.013Z,5.63
2018-10-19T01:50:31.995Z,5.60
2018-10-19T01:51:31.987Z,5.60
2018-10-19T01:52:31.973Z,5.54
2018-10-19T01:53:31.975Z,5.56
2018-10-19T01:54:31.957Z,5.53
2018-10-19T01:55:31.939Z,5.46
2018-10-19T01:56:31.929Z,5.53
2018-10-19T01:57:31.922Z,5.53
2018-10-19T01:58:31.908Z,5.54
2018-10-19T01:59:31.924Z,5.53
2018-10-19T02:00:31.895Z,5.45
2018-10-19T02:01:31.875Z,5.57
2018-10-19T02:02:31.862Z,5.51
2018-10-19T02:03:31.853Z,5.57
2018-10-19T02:04:31.844Z,5.56
2018-10-19T02:05:31.833Z,5.48
2018-10-19T02:06:31.823Z,5.46
2018-10-19T02:07:31.821Z,5.51
2018-10-19T02:08:31.804Z,5.53
2018-10-19T02:09:31.784Z,5.39
2018-10-19T02:10:31.776Z,5.40
2018-10-19T02:11:31.764Z,5.42
2018-10-19T02:12:31.753Z,5.42
2018-10-19T02:13:31.741Z,5.43
2018-10-19T02:14:31.732Z,5.43
2018-10-19T02:15:31.752Z,5.35
2018-10-19T02:16:31.707Z,5.39
2018-10-19T02:17:31.697Z,5.46
2018-10-19T02:18:31.685Z,5.33
2018-10-19T02:19:31.679Z,5.46
2018-10-19T02:20:31.662Z,5.40
2018-10-19T02:21:31.673Z,5.45
2018-10-19T02:22:31.641Z,5.40
2018-10-19T02:23:31.630Z,5.39
2018-10-19T02:24:31.622Z,5.33
2018-10-19T02:25:31.609Z,5.33
2018-10-19T02:26:31.603Z,5.45
2018-10-19T02:27:31.593Z,5.42
2018-10-19T02:28:31.581Z,5.35
2018-10-19T02:29:31.567Z,5.30
2018-10-19T02:30:31.553Z,5.30
2018-10-19T02:31:31.558Z,5.30
2018-10-19T02:32:31.531Z,5.24
2018-10-19T02:33:31.519Z,5.25
2018-10-19T02:34:31.513Z,5.27
2018-10-19T02:35:31.529Z,5.24
2018-10-19T02:36:31.487Z,5.27
2018-10-19T02:37:31.478Z,5.27
2018-10-19T02:38:31.463Z,5.30
2018-10-19T02:39:31.452Z,5.30
2018-10-19T02:40:31.441Z,5.33
2018-10-19T02:41:31.450Z,5.22
2018-10-19T02:42:31.428Z,5.31
2018-10-19T02:43:31.410Z,5.31
2018-10-19T02:44:31.398Z,5.31
2018-10-19T02:45:31.385Z,5.35
2018-10-19T02:46:31.374Z,5.33
2018-10-19T02:47:31.392Z,5.31
2018-10-19T02:48:31.365Z,5.25
2018-10-19T02:49:31.343Z,5.36
2018-10-19T02:50:31.329Z,5.33
2018-10-19T02:51:31.324Z,5.27
2018-10-19T02:52:31.309Z,5.31
2018-10-19T02:53:31.311Z,5.30
2018-10-19T02:54:31.287Z,5.30
2018-10-19T02:55:31.278Z,5.28
2018-10-19T02:56:31.262Z,5.27
2018-10-19T02:57:31.253Z,5.31
2018-10-19T02:58:31.244Z,5.30
2018-10-19T02:59:31.233Z,5.28
2018-10-19T03:00:31.218Z,5.22
2018-10-19T03:01:31.208Z,5.25
2018-10-19T03:02:31.199Z,5.17
2018-10-19T03:03:31.233Z,5.15
2018-10-19T03:04:31.173Z,5.22
2018-10-19T03:05:31.163Z,5.17
2018-10-19T03:06:31.166Z,5.07
2018-10-19T03:07:31.140Z,5.07
2018-10-19T03:08:31.132Z,5.12
2018-10-19T03:09:31.126Z,5.15
2018-10-19T03:10:31.107Z,5.17
2018-10-19T03:11:31.178Z,5.10
2018-10-19T03:12:31.090Z,5.20
2018-10-19T03:13:31.074Z,5.12
2018-10-19T03:14:31.088Z,5.03
2018-10-19T03:15:31.058Z,5.18
2018-10-19T03:16:31.040Z,5.18
2018-10-19T03:17:31.062Z,5.10
2018-10-19T03:18:31.021Z,5.12
2018-10-19T03:19:31.024Z,5.07
2018-10-19T03:20:30.996Z,5.10
2018-10-19T03:21:30.986Z,5.13
2018-10-19T03:22:30.977Z,5.07
2018-10-19T03:23:31.011Z,5.02
2018-10-19T03:24:30.951Z,5.12
2018-10-19T03:25:30.947Z,5.10
2018-10-19T03:26:30.936Z,5.09
2018-10-19T03:27:30.924Z,5.12
2018-10-19T03:28:30.910Z,5.15
2018-10-19T03:29:30.926Z,5.17
2018-10-19T03:30:30.887Z,5.17
2018-10-19T03:31:30.873Z,5.12
2018-10-19T03:32:30.861Z,5.12
2018-10-19T03:33:30.849Z,5.12
2018-10-19T03:34:30.839Z,5.09
2018-10-19T03:35:30.885Z,5.13
2018-10-19T03:36:30.817Z,5.07
2018-10-19T03:37:30.809Z,5.12
2018-10-19T03:38:30.798Z,5.12
2018-10-19T03:39:30.830Z,5.15
2018-10-19T03:40:30.793Z,5.10
2018-10-19T03:41:30.800Z,5.06
2018-10-19T03:42:30.752Z,5.06
2018-10-19T03:43:30.739Z,5.10
2018-10-19T03:44:30.729Z,5.09
2018-10-19T03:45:30.725Z,5.12
2018-10-19T03:46:30.710Z,5.04
2018-10-19T03:47:30.716Z,5.03
2018-10-19T03:48:30.684Z,5.04
2018-10-19T03:49:30.674Z,5.02
2018-10-19T03:50:30.662Z,5.04
2018-10-19T03:51:30.654Z,5.00
2018-10-19T03:52:30.640Z,5.07
2018-10-19T03:53:30.664Z,5.06
2018-10-19T03:54:30.618Z,5.04
2018-10-19T03:55:30.605Z,5.20
2018-10-19T03:56:30.614Z,5.21
2018-10-19T03:57:30.584Z,5.13
2018-10-19T03:58:30.575Z,5.18
2018-10-19T03:59:30.578Z,5.17
2018-10-19T04:00:30.552Z,5.12
2018-10-19T04:01:30.540Z,5.15
2018-10-19T04:02:30.538Z,5.17
2018-10-19T04:03:30.574Z,5.18
2018-10-19T04:04:30.507Z,5.17
2018-10-19T04:05:30.531Z,5.18
2018-10-19T04:06:30.487Z,5.20
2018-10-19T04:07:30.479Z,5.15
2018-10-19T04:08:30.463Z,5.12
2018-10-19T04:09:30.454Z,5.20
2018-10-19T04:10:30.440Z,5.25
2018-10-19T04:11:30.480Z,5.21
2018-10-19T04:12:30.448Z,5.18
2018-10-19T04:13:30.445Z,5.22
2018-10-19T04:14:30.395Z,5.20
2018-10-19T04:15:30.385Z,5.20
2018-10-19T04:16:30.381Z,5.21
2018-10-19T04:17:30.375Z,5.22
2018-10-19T04:18:30.356Z,5.30
2018-10-19T04:19:30.344Z,5.25
2018-10-19T04:20:30.328Z,5.30
2018-10-19T04:21:30.318Z,5.30
2018-10-19T04:22:30.310Z,5.31
2018-10-19T04:23:30.319Z,5.33
2018-10-19T04:24:30.288Z,5.27
2018-10-19T04:25:30.276Z,5.30
2018-10-19T04:26:30.266Z,5.35
2018-10-19T04:27:30.363Z,5.22
2018-10-19T04:28:30.258Z,5.31
2018-10-19T04:29:30.243Z,5.22
2018-10-19T04:30:30.218Z,5.28
2018-10-19T04:31:30.207Z,5.31
2018-10-19T04:32:30.213Z,5.27
2018-10-19T04:33:30.200Z,5.33
2018-10-19T04:34:30.182Z,5.28
2018-10-19T04:35:30.207Z,5.31
2018-10-19T04:36:30.154Z,5.31
2018-10-19T04:37:30.142Z,5.39
2018-10-19T04:38:30.134Z,5.36
2018-10-19T04:39:30.126Z,5.39
2018-10-19T04:40:30.107Z,5.46
2018-10-19T04:41:30.173Z,5.40
2018-10-19T04:42:30.085Z,5.28
2018-10-19T04:43:30.075Z,5.30
2018-10-19T04:44:30.071Z,5.28
2018-10-19T04:45:30.052Z,5.28
2018-10-19T04:46:30.043Z,5.31
2018-10-19T04:47:30.101Z,5.31
2018-10-19T04:48:30.032Z,5.30
2018-10-19T04:49:30.026Z,5.28
2018-10-19T04:50:29.999Z,5.30
2018-10-19T04:51:29.987Z,5.21
2018-10-19T04:52:29.981Z,5.24
2018-10-19T04:53:30.015Z,5.33
2018-10-19T04:54:29.960Z,5.30
2018-10-19T04:55:29.948Z,5.27
2018-10-19T04:56:29.936Z,5.27
2018-10-19T04:57:29.921Z,5.28
2018-10-19T04:58:29.908Z,5.22
2018-10-19T04:59:29.932Z,5.25
2018-10-19T05:00:29.890Z,5.22
2018-10-19T05:01:29.874Z,5.17
2018-10-19T05:02:29.917Z,5.30
2018-10-19T05:03:29.852Z,5.30
2018-10-19T05:04:29.862Z,5.22
2018-10-19T05:05:29.932Z,5.28
2018-10-19T05:06:29.866Z,5.30
2018-10-19T05:07:29.837Z,5.33
2018-10-19T05:08:29.841Z,5.25
2018-10-19T05:09:29.819Z,5.31
2018-10-19T05:10:29.795Z,5.22
2018-10-19T05:11:29.778Z,5.30
2018-10-19T05:12:29.851Z,5.24
2018-10-19T05:13:30.689Z,5.21
2018-10-19T05:14:29.772Z,5.22
2018-10-19T05:15:29.720Z,5.24
2018-10-19T05:16:29.753Z,5.24
2018-10-19T05:17:29.720Z,5.21
2018-10-19T05:18:29.715Z,5.18
2018-10-19T05:19:29.695Z,5.21
2018-10-19T05:20:29.726Z,5.15
2018-10-19T05:21:29.691Z,5.18
2018-10-19T05:22:29.642Z,5.24
2018-10-19T05:23:29.633Z,5.22
2018-10-19T05:24:29.671Z,5.17
2018-10-19T05:25:29.611Z,5.20
2018-10-19T05:26:29.597Z,5.13
2018-10-19T05:27:29.597Z,5.22
2018-10-19T05:28:29.574Z,5.21
2018-10-19T05:29:29.568Z,5.09
2018-10-19T05:30:29.551Z,5.02
2018-10-19T05:31:29.541Z,4.99
2018-10-19T05:32:29.545Z,4.99
2018-10-19T05:33:29.521Z,4.94
2018-10-19T05:34:29.508Z,4.86
2018-10-19T05:35:29.496Z,4.88
2018-10-19T05:36:29.486Z,4.88
2018-10-19T05:37:29.504Z,5.00
2018-10-19T05:38:37.040Z,4.94
2018-10-19T05:39:29.455Z,4.97
2018-10-19T05:40:29.443Z,5.02
2018-10-19T05:41:29.431Z,4.99
2018-10-19T05:42:29.422Z,4.92
2018-10-19T05:43:29.492Z,4.99
2018-10-19T05:44:29.406Z,4.96
2018-10-19T05:45:29.393Z,4.92
2018-10-19T05:46:29.383Z,5.00
2018-10-19T05:47:29.371Z,4.96
2018-10-19T05:48:29.373Z,4.99
2018-10-19T05:49:29.348Z,4.86
2018-10-19T05:50:29.337Z,4.86
2018-10-19T05:51:29.321Z,4.92
2018-10-19T05:52:29.324Z,4.91
2018-10-19T05:53:29.339Z,4.86
2018-10-19T05:54:29.294Z,4.77
2018-10-19T05:55:29.275Z,4.77
2018-10-19T05:56:29.281Z,4.80
2018-10-19T05:57:29.260Z,4.84
2018-10-19T05:58:29.251Z,4.78
2018-10-19T05:59:29.243Z,4.73
2018-10-19T06:00:29.240Z,4.77
2018-10-19T06:01:29.247Z,4.78
2018-10-19T06:02:29.398Z,4.86
2018-10-19T06:03:29.227Z,4.92
2018-10-19T06:04:29.211Z,4.91
2018-10-19T06:05:29.176Z,4.88
2018-10-19T06:06:29.161Z,4.89
2018-10-19T06:07:29.158Z,4.86
2018-10-19T06:08:29.144Z,4.99
2018-10-19T06:09:29.138Z,4.96
2018-10-19T06:10:29.110Z,4.96
2018-10-19T06:11:29.103Z,4.97
2018-10-19T06:12:29.095Z,4.91
2018-10-19T06:13:29.118Z,5.00
2018-10-19T06:14:29.087Z,4.97
2018-10-19T06:15:29.063Z,5.00
2018-10-19T06:16:29.067Z,5.00
2018-10-19T06:17:29.050Z,4.97
2018-10-19T06:18:29.034Z,4.99
2018-10-19T06:19:29.013Z,4.89
2018-10-19T06:20:29.012Z,4.99
2018-10-19T06:21:28.997Z,5.02
2018-10-19T06:22:28.978Z,4.96
2018-10-19T06:23:28.970Z,5.03
2018-10-19T06:24:28.980Z,5.07
2018-10-19T06:25:28.942Z,4.96
2018-10-19T06:26:28.993Z,5.07
2018-10-19T06:27:28.921Z,5.06
2018-10-19T06:28:28.918Z,5.07
2018-10-19T06:29:28.909Z,5.10
2018-10-19T06:30:28.888Z,5.03
2018-10-19T06:31:28.875Z,5.10
2018-10-19T06:32:28.874Z,5.21
2018-10-19T06:33:28.891Z,5.22
2018-10-19T06:34:28.851Z,5.15
2018-10-19T06:35:28.836Z,5.21
2018-10-19T06:36:28.818Z,5.15
2018-10-19T06:37:28.816Z,5.15
2018-10-19T06:38:28.808Z,5.20
2018-10-19T06:39:28.803Z,5.15
2018-10-19T06:40:28.779Z,5.25
2018-10-19T06:41:28.768Z,5.25
2018-10-19T06:42:28.754Z,5.28
2018-10-19T06:43:28.756Z,5.27
2018-10-19T06:44:28.736Z,5.31
2018-10-19T06:45:28.736Z,5.30
2018-10-19T06:46:28.727Z,5.33
2018-10-19T06:47:28.733Z,5.36
2018-10-19T06:48:28.688Z,5.30
2018-10-19T06:49:28.697Z,5.35
2018-10-19T06:50:28.678Z,5.40
2018-10-19T06:51:28.651Z,5.38
2018-10-19T06:52:28.643Z,5.39
2018-10-19T06:53:28.634Z,5.43
2018-10-19T06:54:37.189Z,5.39
2018-10-19T06:55:35.655Z,5.42
2018-10-19T06:56:36.698Z,5.49
2018-10-19T06:57:28.592Z,5.49
2018-10-19T06:58:28.578Z,5.56
2018-10-19T06:59:28.644Z,5.49
2018-10-19T07:00:28.577Z,5.58
2018-10-19T07:01:28.558Z,5.54
2018-10-19T07:02:28.533Z,5.54
2018-10-19T07:03:28.524Z,5.61
2018-10-19T07:04:28.513Z,5.64
2018-10-19T07:05:28.544Z,5.64
2018-10-19T07:06:28.523Z,5.60
2018-10-19T07:07:28.492Z,5.65
2018-10-19T07:08:28.591Z,5.68
2018-10-19T07:09:28.461Z,5.63
2018-10-19T07:10:28.460Z,5.54
2018-10-19T07:11:28.437Z,5.60
2018-10-19T07:12:28.436Z,5.65
2018-10-19T07:13:28.464Z,5.61
2018-10-19T07:14:28.402Z,5.57
2018-10-19T07:15:28.385Z,5.57
2018-10-19T07:16:28.404Z,5.63
2018-10-19T07:17:28.398Z,5.71
2018-10-19T07:18:28.351Z,5.68
2018-10-19T07:19:28.353Z,5.63
2018-10-19T07:20:28.338Z,5.75
2018-10-19T07:21:28.367Z,5.78
2018-10-19T07:22:28.361Z,5.82
2018-10-19T07:23:28.333Z,5.90
2018-10-19T07:24:28.389Z,5.89
2018-10-19T07:25:28.307Z,5.93
2018-10-19T07:26:28.274Z,6.00
2018-10-19T07:27:28.263Z,6.01
2018-10-19T07:28:28.286Z,6.11
2018-10-19T07:29:28.284Z,6.08
2018-10-19T07:30:28.229Z,6.12
2018-10-19T07:31:28.291Z,6.12
2018-10-19T07:32:28.219Z,6.19
2018-10-19T07:33:28.220Z,6.28
2018-10-19T07:34:28.210Z,6.28
2018-10-19T07:35:28.185Z,6.40
2018-10-19T07:36:28.357Z,6.41
2018-10-19T07:37:28.153Z,6.38
2018-10-19T07:38:28.147Z,6.49
2018-10-19T07:39:28.128Z,6.52
2018-10-19T07:40:35.467Z,6.49
2018-10-19T07:41:28.122Z,6.59
2018-10-19T07:42:28.151Z,6.62
2018-10-19T07:43:28.079Z,6.66
2018-10-19T07:44:28.064Z,6.62
2018-10-19T07:45:28.052Z,6.76
2018-10-19T07:46:28.042Z,6.79
2018-10-19T07:47:28.158Z,6.76
2018-10-19T07:48:28.076Z,6.77
2018-10-19T07:49:28.028Z,6.76
2018-10-19T07:50:27.997Z,6.74
2018-10-19T07:51:27.985Z,6.70
2018-10-19T07:52:27.973Z,6.79
2018-10-19T07:53:27.966Z,6.77
2018-10-19T07:54:28.033Z,6.81
2018-10-19T07:55:27.944Z,6.85
2018-10-19T07:56:27.937Z,6.92
2018-10-19T07:57:27.920Z,7.02
2018-10-19T07:58:27.910Z,7.06
2018-10-19T07:59:27.912Z,7.12
2018-10-19T08:00:27.923Z,7.15
2018-10-19T08:01:27.875Z,7.17
2018-10-19T08:02:27.861Z,7.16
2018-10-19T08:03:27.865Z,7.25
2018-10-19T08:04:27.845Z,7.28
2018-10-19T08:05:27.856Z,7.31
2018-10-19T08:06:27.818Z,7.34
2018-10-19T08:07:27.816Z,7.48
2018-10-19T08:08:27.800Z,7.48
2018-10-19T08:09:27.798Z,7.64
2018-10-19T08:10:27.812Z,7.67
2018-10-19T08:11:27.794Z,7.63
2018-10-19T08:12:27.757Z,7.67
2018-10-19T08:13:27.741Z,7.82
2018-10-19T08:14:27.732Z,7.69
2018-10-19T08:15:27.743Z,7.80
2018-10-19T08:16:27.727Z,7.89
2018-10-19T08:17:27.701Z,8.02
2018-10-19T08:18:27.694Z,7.97
2018-10-19T08:19:27.676Z,8.01
2018-10-19T08:20:34.752Z,8.19
2018-10-19T08:21:27.674Z,8.19
2018-10-19T08:22:27.640Z,8.33
2018-10-19T08:23:27.628Z,8.40
2018-10-19T08:24:27.619Z,8.55
2018-10-19T08:25:27.609Z,8.52
2018-10-19T08:26:27.640Z,8.62
2018-10-19T08:27:27.615Z,8.65
2018-10-19T08:28:27.606Z,8.76
2018-10-19T08:29:27.564Z,8.79
2018-10-19T08:30:27.551Z,8.94
2018-10-19T08:31:27.543Z,9.10
2018-10-19T08:32:27.543Z,9.11
2018-10-19T08:33:27.519Z,9.17
2018-10-19T08:34:27.511Z,9.21
2018-10-19T08:35:27.498Z,9.29
2018-10-19T08:36:27.544Z,9.43
2018-10-19T08:37:27.551Z,9.50
2018-10-19T08:38:34.584Z,9.53
2018-10-19T08:39:27.495Z,9.65
2018-10-19T08:40:27.489Z,9.66
2018-10-19T08:41:27.528Z,9.75
2018-10-19T08:42:27.439Z,9.72
2018-10-19T08:43:27.408Z,9.89
2018-10-19T08:44:27.394Z,9.86
2018-10-19T08:45:27.389Z,9.91
2018-10-19T08:46:27.377Z,10.04
2018-10-19T08:47:27.386Z,10.05
2018-10-19T08:48:27.354Z,10.11
2018-10-19T08:49:27.338Z,10.29
2018-10-19T08:50:27.327Z,10.27
2018-10-19T08:51:27.455Z,10.30
2018-10-19T08:52:34.342Z,10.36
2018-10-19T08:53:27.333Z,10.41
2018-10-19T08:54:27.288Z,10.47
2018-10-19T08:55:27.315Z,10.48
2018-10-19T08:56:27.259Z,10.42
2018-10-19T08:57:27.249Z,10.56
2018-10-19T08:58:27.447Z,10.56
2018-10-19T08:59:27.263Z,10.71
2018-10-19T09:00:34.260Z,10.68
2018-10-19T09:01:27.209Z,10.76
2018-10-19T09:02:34.483Z,10.74
2018-10-19T09:03:27.236Z,10.82
2018-10-19T09:04:27.185Z,10.86
2018-10-19T09:05:27.172Z,10.86
2018-10-19T09:06:27.150Z,10.92
2018-10-19T09:07:27.143Z,10.96
2018-10-19T09:08:27.129Z,11.00
2018-10-19T09:09:27.121Z,11.03
2018-10-19T09:10:27.129Z,11.14
2018-10-19T09:11:27.154Z,11.10
2018-10-19T09:12:27.152Z,11.27
2018-10-19T09:13:27.091Z,11.21
2018-10-19T09:14:35.031Z,11.22
2018-10-19T09:15:27.997Z,11.32
2018-10-19T09:16:27.034Z,11.39
2018-10-19T09:17:27.026Z,11.49
2018-10-19T09:18:27.058Z,11.49
2018-10-19T09:19:27.007Z,11.61
2018-10-19T09:20:26.992Z,11.65
2018-10-19T09:21:27.049Z,11.64
2018-10-19T09:22:26.967Z,11.75
2018-10-19T09:23:27.013Z,11.70
2018-10-19T09:24:26.960Z,11.90
2018-10-19T09:25:27.030Z,11.96
2018-10-19T09:26:26.922Z,12.10
2018-10-19T09:27:26.920Z,12.05
2018-10-19T09:28:26.900Z,12.14
2018-10-19T09:29:26.921Z,12.20
2018-10-19T09:30:34.094Z,12.32
2018-10-19T09:31:26.871Z,12.37
2018-10-19T09:32:26.859Z,12.47
2018-10-19T09:33:26.848Z,12.46
2018-10-19T09:34:26.837Z,12.64
2018-10-19T09:35:26.866Z,12.68
2018-10-19T09:36:27.028Z,12.72
2018-10-19T09:37:26.801Z,12.77
2018-10-19T09:38:26.833Z,12.79
2018-10-19T09:39:26.777Z,12.87
2018-10-19T09:40:26.766Z,12.93
2018-10-19T09:41:26.880Z,12.93
2018-10-19T09:42:26.743Z,13.07
2018-10-19T09:43:26.751Z,13.10
2018-10-19T09:44:26.724Z,13.17
2018-10-19T09:45:26.708Z,13.14
2018-10-19T09:46:26.699Z,13.23
2018-10-19T09:47:33.772Z,13.29
2018-10-19T09:48:26.674Z,13.32
2018-10-19T09:49:26.698Z,13.36
2018-10-19T09:50:26.733Z,13.41
2018-10-19T09:51:33.694Z,13.46
2018-10-19T09:52:26.631Z,13.55
2018-10-19T09:53:26.627Z,13.57
2018-10-19T09:54:26.615Z,13.62
2018-10-19T09:55:26.626Z,13.63
2018-10-19T09:56:26.592Z,13.70
2018-10-19T09:57:26.574Z,13.69
2018-10-19T09:58:26.564Z,13.70
2018-10-19T09:59:26.558Z,13.73
2018-10-19T10:00:26.549Z,13.85
2018-10-19T10:01:26.544Z,13.87
2018-10-19T10:02:26.531Z,13.88
2018-10-19T10:03:26.512Z,13.89
2018-10-19T10:04:26.497Z,13.91
2018-10-19T10:05:26.497Z,13.91
2018-10-19T10:06:26.485Z,14.02
2018-10-19T10:07:26.462Z,14.00
2018-10-19T10:08:26.465Z,14.07
2018-10-19T10:09:26.445Z,14.15
2018-10-19T10:10:26.428Z,14.17
2018-10-19T10:11:26.465Z,14.20
2018-10-19T10:12:26.408Z,14.24
2018-10-19T10:13:26.395Z,14.15
2018-10-19T10:14:26.398Z,14.24
2018-10-19T10:15:26.502Z,14.33
2018-10-19T10:16:26.363Z,14.32
2018-10-19T10:17:26.358Z,14.35
2018-10-19T10:18:26.344Z,14.35
2018-10-19T10:19:26.327Z,14.46
2018-10-19T10:20:26.322Z,14.45
2018-10-19T10:21:26.314Z,14.50
2018-10-19T10:22:26.314Z,14.47
2018-10-19T10:23:26.285Z,14.55
2018-10-19T10:24:26.273Z,14.55
2018-10-19T10:25:26.265Z,14.47
2018-10-19T10:26:26.250Z,14.55
2018-10-19T10:27:26.259Z,14.58
2018-10-19T10:28:26.226Z,14.61
2018-10-19T10:29:26.218Z,14.58
2018-10-19T10:30:26.207Z,14.69
2018-10-19T10:31:26.198Z,14.70
2018-10-19T10:32:26.276Z,14.75
2018-10-19T10:33:26.182Z,14.80
2018-10-19T10:34:26.165Z,14.83
2018-10-19T10:35:26.149Z,14.83
2018-10-19T10:36:26.139Z,14.86
2018-10-19T10:37:26.135Z,14.86
2018-10-19T10:38:26.128Z,14.96
2018-10-19T10:39:26.112Z,14.92
2018-10-19T10:40:26.093Z,14.96
2018-10-19T10:41:26.084Z,14.99
2018-10-19T10:42:26.084Z,15.02
2018-10-19T10:43:26.097Z,15.02
2018-10-19T10:44:34.398Z,15.09
2018-10-19T10:45:26.038Z,15.13
2018-10-19T10:46:26.043Z,15.16
2018-10-19T10:47:26.018Z,15.16
2018-10-19T10:48:26.029Z,15.16
2018-10-19T10:49:25.995Z,15.27
2018-10-19T10:50:26.040Z,15.29
2018-10-19T10:51:25.969Z,15.27
2018-10-19T10:52:25.961Z,15.32
2018-10-19T10:53:26.018Z,15.44
2018-10-19T10:54:25.940Z,15.46
2018-10-19T10:55:25.925Z,15.47
2018-10-19T10:56:25.915Z,15.47
2018-10-19T10:57:25.908Z,15.56
2018-10-19T10:58:25.913Z,15.57
2018-10-19T10:59:25.896Z,15.59
2018-10-19T11:00:25.868Z,15.68
2018-10-19T11:01:25.860Z,15.56
2018-10-19T11:02:25.849Z,15.62
2018-10-19T11:03:25.835Z,15.59
2018-10-19T11:04:25.844Z,15.68
2018-10-19T11:05:25.819Z,15.64
2018-10-19T11:06:25.805Z,15.68
2018-10-19T11:07:25.868Z,15.64
2018-10-19T11:08:25.783Z,15.59
2018-10-19T11:09:25.769Z,15.57
2018-10-19T11:10:25.763Z,15.74
2018-10-19T11:11:25.747Z,15.64
2018-10-19T11:12:25.739Z,15.68
2018-10-19T11:13:25.726Z,15.67
2018-10-19T11:14:25.743Z,15.62
2018-10-19T11:15:25.730Z,15.76
2018-10-19T11:16:25.696Z,15.65
2018-10-19T11:17:25.744Z,15.72
2018-10-19T11:18:25.686Z,15.76
2018-10-19T11:19:25.705Z,15.80
2018-10-19T11:20:25.645Z,15.75
2018-10-19T11:21:25.638Z,15.80
2018-10-19T11:22:25.708Z,15.76
2018-10-19T11:23:25.613Z,15.87
2018-10-19T11:24:25.605Z,15.87
2018-10-19T11:25:25.591Z,15.86
2018-10-19T11:26:25.586Z,15.83
2018-10-19T11:27:25.568Z,15.93
2018-10-19T11:28:25.585Z,15.94
2018-10-19T11:29:25.545Z,16.00
2018-10-19T11:30:25.572Z,15.92
2018-10-19T11:31:25.543Z,16.00
2018-10-19T11:32:25.514Z,15.93
2018-10-19T11:33:25.509Z,15.93
2018-10-19T11:34:25.568Z,16.04
2018-10-19T11:35:25.480Z,16.09
2018-10-19T11:36:25.532Z,16.11
2018-10-19T11:37:25.552Z,16.17
2018-10-19T11:38:25.463Z,16.15
2018-10-19T11:39:25.541Z,16.28
2018-10-19T11:40:25.446Z,16.28
2018-10-19T11:41:25.415Z,16.43
2018-10-19T11:42:25.403Z,16.38
2018-10-19T11:43:25.391Z,16.45
2018-10-19T11:44:25.386Z,16.46
2018-10-19T11:45:25.532Z,16.43
2018-10-19T11:46:25.356Z,16.41
2018-10-19T11:47:25.343Z,16.48
2018-10-19T11:48:25.559Z,16.53
2018-10-19T11:49:25.340Z,16.49
2018-10-19T11:50:25.321Z,16.49
2018-10-19T11:51:25.318Z,16.35
2018-10-19T11:52:25.288Z,16.46
2018-10-19T11:53:25.276Z,16.45
2018-10-19T11:54:25.269Z,16.41
2018-10-19T11:55:25.264Z,16.43
2018-10-19T11:56:25.310Z,16.31
2018-10-19T11:57:25.232Z,16.34
2018-10-19T11:58:25.286Z,16.41
2018-10-19T11:59:25.210Z,16.33
2018-10-19T12:00:25.212Z,16.30
2018-10-19T12:01:25.227Z,16.42
2018-10-19T12:02:25.178Z,16.35
2018-10-19T12:03:25.218Z,16.46
2018-10-19T12:04:25.154Z,16.45
2018-10-19T12:05:25.145Z,16.48
2018-10-19T12:06:25.138Z,16.45
2018-10-19T12:07:25.165Z,16.43
2018-10-19T12:08:25.135Z,16.48
2018-10-19T12:09:25.102Z,16.52
2018-10-19T12:10:25.089Z,16.50
2018-10-19T12:11:25.086Z,16.45
2018-10-19T12:12:25.071Z,16.52
2018-10-19T12:13:25.090Z,16.50
2018-10-19T12:14:25.043Z,16.45
2018-10-19T12:15:25.034Z,16.42
2018-10-19T12:16:25.478Z,16.52
2018-10-19T12:17:25.023Z,16.48
2018-10-19T12:18:25.000Z,16.50
2018-10-19T12:19:25.091Z,16.46
2018-10-19T12:20:25.009Z,16.52
2018-10-19T12:21:25.032Z,16.57
2018-10-19T12:22:25.000Z,16.56
2018-10-19T12:23:24.945Z,16.57
2018-10-19T12:24:24.957Z,16.60
2018-10-19T12:25:24.928Z,16.57
2018-10-19T12:26:24.910Z,16.64
2018-10-19T12:27:25.022Z,16.60
2018-10-19T12:28:24.889Z,16.63
2018-10-19T12:29:24.923Z,16.63
2018-10-19T12:30:24.863Z,16.61
2018-10-19T12:31:24.869Z,16.60
2018-10-19T12:32:24.905Z,16.75
2018-10-19T12:33:24.863Z,16.68
2018-10-19T12:34:24.838Z,16.73
2018-10-19T12:35:24.862Z,16.79
2018-10-19T12:36:24.807Z,16.81
2018-10-19T12:37:24.791Z,16.82
2018-10-19T12:38:24.781Z,16.83
2018-10-19T12:39:24.895Z,16.91
2018-10-19T12:40:24.756Z,16.91
2018-10-19T12:41:24.746Z,16.88
2018-10-19T12:42:24.790Z,16.85
2018-10-19T12:43:24.723Z,16.91
2018-10-19T12:44:24.708Z,16.89
2018-10-19T12:45:24.699Z,16.96
2018-10-19T12:46:24.685Z,16.96
2018-10-19T12:47:24.783Z,16.93
2018-10-19T12:48:24.767Z,16.97
2018-10-19T12:49:24.666Z,16.76
2018-10-19T12:50:24.705Z,16.82
2018-10-19T12:51:24.630Z,16.93
2018-10-19T12:52:24.643Z,16.93
2018-10-19T12:53:24.619Z,16.86
2018-10-19T12:54:24.645Z,16.96
2018-10-19T12:55:24.608Z,16.91
2018-10-19T12:56:24.586Z,16.97
2018-10-19T12:57:24.568Z,17.00
2018-10-19T12:58:24.561Z,16.98
2018-10-19T12:59:24.539Z,17.08
2018-10-19T13:00:24.580Z,17.08
2018-10-19T13:01:24.563Z,17.00
2018-10-19T13:02:24.531Z,17.01
2018-10-19T13:03:24.549Z,17.06
2018-10-19T13:04:24.573Z,17.00
2018-10-19T13:05:24.476Z,17.06
2018-10-19T13:06:24.465Z,17.01
2018-10-19T13:07:24.469Z,17.00
2018-10-19T13:08:24.553Z,17.04
2018-10-19T13:09:24.439Z,17.01